createdAt,value
2023-01-27T00:00:58.335Z,5.70
2023-01-27T00:03:25.181Z,4.10
2023-01-27T00:05:51.846Z,2.08
2023-01-27T00:08:19.176Z,4.40
2023-01-27T00:11:23.863Z,4.90
2023-01-27T00:13:50.510Z,3.65
2023-01-27T00:16:18.574Z,6.13
2023-01-27T00:18:45.370Z,4.18
2023-01-27T00:21:30.554Z,5.10
2023-01-27T00:24:15.850Z,4.82
2023-01-27T00:26:42.819Z,6.40
2023-01-27T00:29:09.665Z,4.03
2023-01-27T00:31:56.817Z,3.92
2023-01-27T00:34:23.666Z,5.80
2023-01-27T00:36:50.533Z,6.80
2023-01-27T00:39:17.665Z,3.38
2023-01-27T00:41:44.395Z,4.22
2023-01-27T00:44:12.885Z,5.20
2023-01-27T00:46:43.080Z,5.63
2023-01-27T00:49:10.965Z,7.65
2023-01-27T00:51:38.053Z,5.65
2023-01-27T00:54:05.660Z,5.45
2023-01-27T00:56:32.646Z,4.07
2023-01-27T00:58:59.534Z,6.20
2023-01-27T01:01:26.622Z,5.53
2023-01-27T01:03:58.966Z,3.97
2023-01-27T01:06:26.782Z,5.40
2023-01-27T01:08:57.245Z,5.65
2023-01-27T01:11:25.232Z,6.88
2023-01-27T01:13:54.334Z,8.10
2023-01-27T01:16:25.625Z,4.95
2023-01-27T01:18:54.052Z,3.92
2023-01-27T01:21:21.016Z,5.45
2023-01-27T01:23:48.518Z,4.85
2023-01-27T01:26:16.861Z,3.38
2023-01-27T01:28:52.041Z,6.72
2023-01-27T01:31:20.700Z,5.20
2023-01-27T01:33:48.795Z,4.25
2023-01-27T01:36:19.294Z,6.95
2023-01-27T01:38:47.016Z,4.47
2023-01-27T01:41:17.405Z,4.57
2023-01-27T01:43:44.945Z,6.55
2023-01-27T01:46:13.551Z,5.32
2023-01-27T01:48:43.905Z,6.05
2023-01-27T01:51:14.938Z,5.75
2023-01-27T01:53:47.962Z,4.30
2023-01-27T01:56:20.909Z,7.75
2023-01-27T01:58:48.951Z,8.75
2023-01-27T02:01:19.408Z,6.55
2023-01-27T02:03:52.617Z,4.05
2023-01-27T02:06:20.937Z,11.52
2023-01-27T02:08:50.933Z,6.07
2023-01-27T02:11:19.026Z,10.48
2023-01-27T02:13:45.977Z,5.45
2023-01-27T02:16:14.667Z,6.57
2023-01-27T02:18:41.911Z,4.65
2023-01-27T02:21:09.299Z,7.55
2023-01-27T02:23:55.707Z,10.32
2023-01-27T02:26:26.934Z,11.35
2023-01-27T02:28:58.772Z,10.73
2023-01-27T02:31:25.821Z,13.25
2023-01-27T02:33:57.528Z,8.15
2023-01-27T02:36:27.104Z,7.95
2023-01-27T02:38:56.885Z,10.18
2023-01-27T02:41:31.895Z,9.95
2023-01-27T02:44:00.359Z,8.32
2023-01-27T02:46:27.529Z,7.28
2023-01-27T02:48:55.029Z,9.93
2023-01-27T02:51:22.703Z,9.27
2023-01-27T02:53:49.877Z,9.73
2023-01-27T02:56:16.894Z,8.13
2023-01-27T02:58:45.001Z,11.00
2023-01-27T03:01:12.037Z,7.57
2023-01-27T03:03:47.076Z,8.73
2023-01-27T03:06:14.858Z,5.82
2023-01-27T03:08:41.998Z,7.88
2023-01-27T03:11:09.607Z,9.07
2023-01-27T03:13:39.605Z,8.82
2023-01-27T03:16:27.052Z,10.05
2023-01-27T03:18:56.732Z,13.65
2023-01-27T03:21:23.618Z,12.57
2023-01-27T03:23:50.463Z,10.73
2023-01-27T03:26:17.246Z,10.32
2023-01-27T03:29:04.459Z,12.10
2023-01-27T03:31:32.725Z,9.35
2023-01-27T03:33:59.920Z,9.15
2023-01-27T03:36:44.993Z,8.43
2023-01-27T03:39:30.078Z,12.95
2023-01-27T03:42:15.204Z,11.75
2023-01-27T03:45:00.636Z,12.48
2023-01-27T03:47:28.854Z,8.50
2023-01-27T03:49:55.585Z,7.78
2023-01-27T03:52:22.359Z,7.60
2023-01-27T03:54:49.165Z,11.02
2023-01-27T03:57:15.892Z,8.35
2023-01-27T03:59:42.746Z,9.18
2023-01-27T04:02:28.068Z,7.90
2023-01-27T04:05:14.931Z,7.00
2023-01-27T04:07:42.054Z,6.72
2023-01-27T04:10:10.720Z,7.88
2023-01-27T04:12:37.452Z,9.20
2023-01-27T04:15:05.270Z,7.15
2023-01-27T04:17:38.816Z,8.30
2023-01-27T04:20:08.674Z,8.00
2023-01-27T04:22:35.383Z,5.32
2023-01-27T04:25:02.141Z,5.75
2023-01-27T04:27:29.130Z,6.85
2023-01-27T04:29:55.903Z,6.25
2023-01-27T04:32:22.788Z,5.88
2023-01-27T04:34:49.892Z,9.02
2023-01-27T04:37:18.039Z,5.72
2023-01-27T04:39:45.739Z,6.03
2023-01-27T04:42:12.610Z,7.07
2023-01-27T04:44:39.509Z,5.60
2023-01-27T04:47:06.294Z,5.70
2023-01-27T04:49:33.137Z,5.40
2023-01-27T04:52:00.004Z,5.20
2023-01-27T04:54:28.288Z,5.03
2023-01-27T04:56:57.882Z,4.75
2023-01-27T04:59:25.036Z,5.00
2023-01-27T05:01:52.371Z,5.10
2023-01-27T05:04:19.181Z,5.85
2023-01-27T05:06:46.568Z,3.75
2023-01-27T05:09:13.586Z,5.70
2023-01-27T05:11:42.182Z,4.32
2023-01-27T05:14:09.004Z,5.38
2023-01-27T05:16:36.018Z,5.45
2023-01-27T05:19:02.786Z,4.70
2023-01-27T05:21:30.968Z,5.30
2023-01-27T05:23:58.022Z,4.28
2023-01-27T05:26:27.523Z,5.40
2023-01-27T05:28:57.860Z,4.68
2023-01-27T05:31:26.862Z,4.53
2023-01-27T05:33:55.204Z,3.90
2023-01-27T05:36:23.484Z,4.90
2023-01-27T05:38:50.345Z,4.05
2023-01-27T05:41:19.196Z,4.47
2023-01-27T05:43:47.569Z,3.97
2023-01-27T05:46:17.838Z,4.15
2023-01-27T05:48:46.295Z,4.40
2023-01-27T05:51:15.245Z,4.53
2023-01-27T05:53:42.700Z,3.97
2023-01-27T05:56:10.879Z,4.15
2023-01-27T05:58:38.541Z,3.50
2023-01-27T06:01:10.019Z,3.28
2023-01-27T06:03:39.622Z,3.33
2023-01-27T06:06:08.328Z,2.80
2023-01-27T06:08:35.966Z,4.32
2023-01-27T06:11:03.741Z,3.83
2023-01-27T06:13:30.665Z,5.63
2023-01-27T06:15:57.642Z,4.25
2023-01-27T06:18:24.640Z,3.70
2023-01-27T06:20:52.761Z,3.88
2023-01-27T06:23:22.518Z,4.22
2023-01-27T06:25:49.552Z,4.38
2023-01-27T06:28:28.890Z,3.58
2023-01-27T06:30:57.212Z,4.50
2023-01-27T06:33:23.966Z,4.03
2023-01-27T06:35:52.176Z,4.18
2023-01-27T06:38:19.052Z,4.15
2023-01-27T06:40:45.846Z,4.13
2023-01-27T06:43:13.902Z,3.95
2023-01-27T06:45:41.168Z,5.40
2023-01-27T06:48:08.794Z,3.95
2023-01-27T06:50:36.865Z,6.07
2023-01-27T06:53:07.028Z,4.15
2023-01-27T06:55:34.817Z,4.40
2023-01-27T06:58:01.931Z,4.32
2023-01-27T07:00:29.157Z,3.78
2023-01-27T07:02:56.105Z,3.60
2023-01-27T07:05:23.390Z,4.93
2023-01-27T07:07:50.102Z,4.15
2023-01-27T07:10:18.672Z,3.67
2023-01-27T07:12:45.498Z,3.85
2023-01-27T07:15:13.116Z,3.55
2023-01-27T07:17:40.567Z,4.05
2023-01-27T07:20:09.822Z,3.53
2023-01-27T07:22:36.559Z,3.58
2023-01-27T07:25:06.808Z,4.53
2023-01-27T07:27:37.141Z,3.95
2023-01-27T07:30:04.636Z,4.10
2023-01-27T07:32:31.353Z,2.72
2023-01-27T07:34:58.128Z,4.10
2023-01-27T07:37:24.827Z,2.25
2023-01-27T07:39:51.653Z,2.95
2023-01-27T07:42:18.484Z,4.28
2023-01-27T07:44:49.572Z,2.67
2023-01-27T07:47:17.239Z,2.85
2023-01-27T07:49:45.018Z,3.58
2023-01-27T07:52:11.834Z,3.05
2023-01-27T07:54:38.533Z,3.45
2023-01-27T07:57:05.326Z,3.00
2023-01-27T07:59:32.071Z,2.33
2023-01-27T08:02:00.333Z,3.08
2023-01-27T08:04:27.367Z,3.80
2023-01-27T08:06:54.239Z,5.25
2023-01-27T08:09:20.959Z,3.45
2023-01-27T08:11:47.721Z,4.78
2023-01-27T08:14:14.431Z,3.47
2023-01-27T08:16:41.447Z,4.65
2023-01-27T08:19:09.497Z,2.58
2023-01-27T08:21:36.312Z,3.08
2023-01-27T08:24:03.098Z,3.00
2023-01-27T08:26:29.910Z,3.80
2023-01-27T08:28:56.635Z,3.75
2023-01-27T08:31:23.523Z,3.03
2023-01-27T08:33:52.893Z,3.47
2023-01-27T08:36:22.814Z,3.38
2023-01-27T08:38:49.732Z,4.13
2023-01-27T08:41:20.855Z,2.72
2023-01-27T08:43:48.533Z,3.30
2023-01-27T08:46:15.950Z,2.30
2023-01-27T08:48:42.907Z,2.95
2023-01-27T08:51:12.390Z,2.80
2023-01-27T08:53:41.196Z,3.63
2023-01-27T08:56:11.379Z,2.63
2023-01-27T08:58:38.380Z,2.80
2023-01-27T09:01:06.887Z,2.53
2023-01-27T09:03:34.779Z,2.25
2023-01-27T09:06:02.072Z,2.58
2023-01-27T09:08:29.182Z,2.30
2023-01-27T09:10:57.500Z,2.38
2023-01-27T09:13:24.250Z,2.97
2023-01-27T09:15:52.536Z,3.28
2023-01-27T09:18:19.510Z,4.22
2023-01-27T09:20:46.342Z,3.50
2023-01-27T09:23:13.080Z,3.92
2023-01-27T09:25:39.926Z,3.83
2023-01-27T09:28:16.788Z,4.13
2023-01-27T09:30:46.213Z,4.32
2023-01-27T09:33:15.684Z,3.20
2023-01-27T09:35:46.769Z,3.58
2023-01-27T09:38:16.984Z,4.13
2023-01-27T09:41:05.974Z,4.10
2023-01-27T09:44:00.204Z,2.90
2023-01-27T09:47:08.566Z,5.18
2023-01-27T09:49:54.661Z,5.25
2023-01-27T09:52:51.157Z,2.90
2023-01-27T09:55:23.949Z,2.72
2023-01-27T09:57:59.633Z,2.58
2023-01-27T10:00:38.555Z,2.60
2023-01-27T10:03:24.995Z,2.92
2023-01-27T10:06:21.156Z,3.40
2023-01-27T10:09:10.778Z,2.10
2023-01-27T10:11:52.094Z,2.45
2023-01-27T10:14:29.178Z,4.00
2023-01-27T10:17:20.393Z,3.40
2023-01-27T10:19:57.788Z,3.15
2023-01-27T10:22:34.931Z,2.70
2023-01-27T10:25:13.973Z,3.40
2023-01-27T10:27:47.032Z,3.20
2023-01-27T10:30:21.342Z,2.33
2023-01-27T10:32:58.204Z,2.58
2023-01-27T10:35:31.734Z,3.03
2023-01-27T10:38:07.606Z,2.88
2023-01-27T10:40:40.821Z,5.00
2023-01-27T10:43:16.631Z,3.65
2023-01-27T10:45:52.935Z,3.42
2023-01-27T10:48:29.947Z,3.40
2023-01-27T10:51:01.098Z,3.00
2023-01-27T10:53:34.227Z,2.95
2023-01-27T10:56:05.196Z,3.38
2023-01-27T10:58:44.507Z,3.22
2023-01-27T11:01:21.244Z,3.47
2023-01-27T11:03:54.616Z,4.45
2023-01-27T11:06:24.537Z,3.53
2023-01-27T11:08:55.984Z,4.65
2023-01-27T11:11:44.263Z,4.25
2023-01-27T11:14:25.183Z,3.40
2023-01-27T11:16:53.747Z,3.63
2023-01-27T11:19:33.190Z,3.40
2023-01-27T11:22:08.320Z,5.30
2023-01-27T11:24:45.694Z,4.30
2023-01-27T11:27:23.061Z,3.90
2023-01-27T11:29:55.296Z,4.70
2023-01-27T11:32:34.928Z,3.55
2023-01-27T11:35:05.766Z,3.38
2023-01-27T11:37:35.672Z,3.05
2023-01-27T11:40:04.044Z,3.80
2023-01-27T11:42:33.637Z,3.58
2023-01-27T11:45:01.723Z,4.18
2023-01-27T11:47:32.450Z,3.58
2023-01-27T11:50:01.054Z,3.63
2023-01-27T11:52:29.378Z,3.35
2023-01-27T11:55:04.772Z,2.92
2023-01-27T11:57:31.709Z,2.80
2023-01-27T12:00:02.740Z,3.83
2023-01-27T12:02:35.738Z,4.03
2023-01-27T12:05:07.219Z,4.63
2023-01-27T12:07:46.968Z,3.70
2023-01-27T12:10:30.086Z,4.45
2023-01-27T12:12:58.107Z,3.20
2023-01-27T12:15:28.225Z,3.80
2023-01-27T12:17:58.794Z,3.00
2023-01-27T12:20:36.437Z,3.53
2023-01-27T12:23:16.476Z,3.35
2023-01-27T12:25:50.242Z,3.30
2023-01-27T12:28:24.876Z,4.75
2023-01-27T12:30:54.362Z,3.10
2023-01-27T12:33:27.115Z,4.07
2023-01-27T12:35:58.722Z,3.58
2023-01-27T12:38:31.562Z,3.47
2023-01-27T12:41:01.909Z,4.70
2023-01-27T12:43:29.051Z,3.30
2023-01-27T12:46:17.637Z,4.10
2023-01-27T12:48:47.926Z,3.17
2023-01-27T12:51:16.911Z,3.83
2023-01-27T12:53:45.201Z,4.03
2023-01-27T12:56:14.907Z,3.75
2023-01-27T12:58:44.291Z,3.83
2023-01-27T13:01:28.095Z,3.72
2023-01-27T13:03:58.410Z,5.30
2023-01-27T13:06:33.690Z,4.18
2023-01-27T13:09:03.227Z,4.55
2023-01-27T13:11:34.851Z,3.53
2023-01-27T13:14:01.789Z,3.15
2023-01-27T13:16:32.343Z,3.28
2023-01-27T13:19:00.773Z,4.10
2023-01-27T13:21:32.642Z,3.63
2023-01-27T13:24:02.354Z,4.25
2023-01-27T13:26:32.650Z,4.10
2023-01-27T13:29:06.393Z,3.33
2023-01-27T13:31:43.421Z,3.15
2023-01-27T13:34:21.302Z,3.95
2023-01-27T13:36:53.551Z,4.15
2023-01-27T13:39:28.790Z,3.10
2023-01-27T13:42:09.984Z,3.30
2023-01-27T13:44:41.136Z,4.18
2023-01-27T13:47:16.942Z,3.60
2023-01-27T13:49:47.542Z,4.82
2023-01-27T13:52:14.582Z,5.68
2023-01-27T13:54:42.841Z,5.00
2023-01-27T13:57:30.412Z,5.30
2023-01-27T14:00:09.523Z,5.72
2023-01-27T14:03:18.403Z,5.18
2023-01-27T14:05:59.913Z,4.82
2023-01-27T14:08:47.733Z,3.83
2023-01-27T14:11:27.144Z,4.47
2023-01-27T14:14:05.836Z,4.15
2023-01-27T14:16:44.919Z,4.30
2023-01-27T14:19:26.932Z,3.63
2023-01-27T14:22:00.136Z,3.75
2023-01-27T14:24:36.252Z,3.33
2023-01-27T14:27:12.238Z,3.53
2023-01-27T14:29:47.326Z,3.10
2023-01-27T14:32:26.299Z,4.38
2023-01-27T14:35:15.470Z,4.68
2023-01-27T14:37:52.634Z,4.65
2023-01-27T14:40:24.119Z,4.30
2023-01-27T14:43:06.122Z,4.03
2023-01-27T14:45:36.127Z,4.32
2023-01-27T14:48:11.792Z,5.03
2023-01-27T14:50:46.190Z,3.72
2023-01-27T14:53:27.474Z,5.57
2023-01-27T14:56:02.504Z,4.57
2023-01-27T14:58:44.721Z,5.80
2023-01-27T15:01:23.484Z,4.25
2023-01-27T15:04:30.237Z,5.93
2023-01-27T15:07:01.971Z,5.03
2023-01-27T15:09:47.394Z,6.90
2023-01-27T15:12:44.294Z,5.13
2023-01-27T15:15:32.905Z,5.78
2023-01-27T15:18:12.392Z,4.88
2023-01-27T15:21:09.688Z,6.30
2023-01-27T15:24:05.041Z,4.85
2023-01-27T15:26:33.887Z,4.78
2023-01-27T15:29:00.929Z,4.60
2023-01-27T15:31:31.111Z,4.43
2023-01-27T15:34:16.876Z,4.28
2023-01-27T15:37:01.765Z,5.35
2023-01-27T15:39:40.498Z,4.03
2023-01-27T15:42:11.463Z,4.43
2023-01-27T15:44:59.007Z,4.05
2023-01-27T15:47:30.715Z,4.15
2023-01-27T15:50:07.177Z,3.97
2023-01-27T15:52:40.605Z,3.42
2023-01-27T15:55:19.131Z,3.90
2023-01-27T15:57:47.219Z,4.65
2023-01-27T16:00:26.950Z,4.20
2023-01-27T16:03:02.540Z,4.50
2023-01-27T16:05:34.909Z,4.55
2023-01-27T16:08:10.175Z,4.72
2023-01-27T16:10:37.484Z,4.57
2023-01-27T16:13:22.760Z,4.40
2023-01-27T16:15:49.815Z,3.90
2023-01-27T16:18:43.557Z,3.67
2023-01-27T16:21:33.465Z,3.38
2023-01-27T16:24:05.569Z,5.45
2023-01-27T16:26:40.832Z,5.05
2023-01-27T16:29:30.394Z,5.18
2023-01-27T16:32:03.160Z,5.68
2023-01-27T16:34:41.619Z,4.47
2023-01-27T16:37:18.770Z,4.32
2023-01-27T16:39:50.239Z,5.10
2023-01-27T16:42:17.819Z,5.57
2023-01-27T16:44:48.461Z,4.85
2023-01-27T16:47:22.109Z,4.20
2023-01-27T16:49:53.993Z,4.07
2023-01-27T16:52:40.858Z,3.35
2023-01-27T16:55:20.459Z,5.13
2023-01-27T16:57:47.566Z,4.38
2023-01-27T17:00:20.390Z,3.40
2023-01-27T17:02:48.203Z,3.33
2023-01-27T17:05:18.377Z,3.10
2023-01-27T17:08:04.085Z,6.15
2023-01-27T17:10:35.030Z,3.35
2023-01-27T17:13:03.638Z,3.42
2023-01-27T17:15:35.608Z,4.38
2023-01-27T17:18:03.609Z,3.58
2023-01-27T17:20:41.090Z,5.50
2023-01-27T17:23:19.459Z,4.82
2023-01-27T17:25:46.784Z,4.13
2023-01-27T17:28:20.415Z,3.70
2023-01-27T17:30:50.677Z,3.58
2023-01-27T17:33:21.108Z,3.08
2023-01-27T17:35:55.211Z,3.50
2023-01-27T17:38:24.448Z,4.32
2023-01-27T17:40:54.629Z,4.47
2023-01-27T17:43:32.060Z,3.70
2023-01-27T17:46:13.198Z,3.72
2023-01-27T17:48:44.920Z,3.60
2023-01-27T17:51:16.626Z,3.90
2023-01-27T17:53:43.575Z,3.78
2023-01-27T17:56:13.390Z,3.25
2023-01-27T17:58:45.665Z,3.35
2023-01-27T18:01:14.343Z,3.97
2023-01-27T18:03:41.480Z,3.85
2023-01-27T18:06:12.346Z,3.55
2023-01-27T18:08:49.178Z,3.45
2023-01-27T18:11:23.266Z,3.67
2023-01-27T18:13:54.119Z,3.80
2023-01-27T18:16:23.716Z,3.30
2023-01-27T18:18:51.467Z,4.28
2023-01-27T18:21:22.540Z,3.70
2023-01-27T18:23:54.595Z,3.20
2023-01-27T18:28:52.073Z,3.78
2023-01-27T18:31:22.628Z,4.85
2023-01-27T18:33:57.514Z,5.57
2023-01-27T18:36:28.185Z,5.65
2023-01-27T18:38:56.377Z,4.45
2023-01-27T18:41:27.425Z,6.55
2023-01-27T18:43:56.182Z,5.45
2023-01-27T18:46:25.347Z,5.45
2023-01-27T18:48:52.453Z,4.00
2023-01-27T18:51:19.164Z,4.65
2023-01-27T18:53:46.158Z,6.53
2023-01-27T18:56:14.356Z,5.28
2023-01-27T18:58:41.127Z,6.55
2023-01-27T19:01:21.732Z,6.38
2023-01-27T19:03:50.809Z,6.40
2023-01-27T19:06:17.721Z,6.35
2023-01-27T19:08:44.870Z,6.57
2023-01-27T19:11:16.157Z,7.00
2023-01-27T19:13:43.734Z,5.90
2023-01-27T19:16:13.654Z,6.28
2023-01-27T19:18:41.933Z,6.63
2023-01-27T19:21:11.795Z,8.63
2023-01-27T19:23:38.824Z,6.57
2023-01-27T19:26:10.749Z,6.00
2023-01-27T19:28:38.998Z,5.88
2023-01-27T19:31:07.310Z,5.30
2023-01-27T19:33:36.760Z,5.80
2023-01-27T19:36:17.266Z,7.63
2023-01-27T19:38:45.296Z,5.45
2023-01-27T19:41:12.511Z,4.32
2023-01-27T19:43:41.956Z,5.22
2023-01-27T19:46:14.462Z,3.60
2023-01-27T19:48:41.415Z,5.15
2023-01-27T19:51:09.956Z,4.28
2023-01-27T19:53:36.736Z,3.95
2023-01-27T19:56:04.161Z,3.97
2023-01-27T19:58:30.983Z,4.03
2023-01-27T20:00:59.345Z,4.00
2023-01-27T20:03:26.229Z,4.53
2023-01-27T20:05:52.953Z,4.47
2023-01-27T20:08:21.056Z,6.35
2023-01-27T20:10:48.015Z,4.82
2023-01-27T20:13:16.623Z,4.40
2023-01-27T20:15:44.437Z,5.68
2023-01-27T20:18:14.705Z,3.72
2023-01-27T20:20:41.703Z,3.70
2023-01-27T20:23:09.925Z,5.32
2023-01-27T20:25:36.560Z,5.70
2023-01-27T20:28:03.792Z,5.50
2023-01-27T20:30:32.637Z,6.15
2023-01-27T20:33:00.642Z,4.38
2023-01-27T20:35:29.139Z,4.85
2023-01-27T20:37:56.138Z,5.88
2023-01-27T20:40:25.457Z,4.47
2023-01-27T20:42:52.851Z,5.47
2023-01-27T20:45:20.187Z,5.45
2023-01-27T20:47:49.370Z,5.18
2023-01-27T20:50:16.232Z,4.38
2023-01-27T20:52:44.953Z,4.85
2023-01-27T20:55:13.886Z,3.83
2023-01-27T20:57:41.027Z,4.70
2023-01-27T21:00:15.739Z,4.25
2023-01-27T21:02:43.925Z,4.25
2023-01-27T21:05:11.530Z,4.60
2023-01-27T21:07:38.573Z,4.65
2023-01-27T21:10:07.521Z,3.58
2023-01-27T21:12:34.661Z,3.85
2023-01-27T21:15:01.885Z,4.05
2023-01-27T21:17:28.793Z,5.07
2023-01-27T21:19:55.635Z,4.80
2023-01-27T21:22:22.525Z,4.07
2023-01-27T21:24:49.328Z,3.85
2023-01-27T21:27:17.464Z,3.70
2023-01-27T21:29:44.326Z,5.50
2023-01-27T21:32:11.087Z,4.63
2023-01-27T21:34:38.078Z,4.88
2023-01-27T21:37:04.831Z,6.00
2023-01-27T21:39:31.649Z,5.03
2023-01-27T21:41:58.341Z,5.20
2023-01-27T21:44:47.451Z,4.60
2023-01-27T21:47:16.407Z,3.88
2023-01-27T21:50:00.718Z,3.75
2023-01-27T21:52:31.867Z,3.75
2023-01-27T21:54:59.430Z,3.78
2023-01-27T21:57:27.301Z,5.03
2023-01-27T21:59:56.804Z,4.18
2023-01-27T22:02:23.953Z,5.55
2023-01-27T22:04:50.764Z,4.18
2023-01-27T22:07:18.871Z,4.28
2023-01-27T22:09:46.379Z,3.08
2023-01-27T22:12:15.442Z,3.97
2023-01-27T22:14:42.428Z,3.60
2023-01-27T22:17:10.987Z,4.13
2023-01-27T22:19:39.196Z,3.60
2023-01-27T22:22:07.165Z,3.42
2023-01-27T22:24:33.810Z,3.60
2023-01-27T22:27:00.751Z,4.78
2023-01-27T22:29:27.511Z,3.72
2023-01-27T22:31:54.526Z,3.83
2023-01-27T22:34:23.056Z,3.35
2023-01-27T22:36:49.803Z,3.33
2023-01-27T22:39:19.732Z,3.30
2023-01-27T22:41:46.604Z,3.28
2023-01-27T22:44:16.367Z,3.30
2023-01-27T22:46:43.824Z,3.75
2023-01-27T22:49:11.568Z,3.47
2023-01-27T22:51:39.886Z,4.68
2023-01-27T22:54:09.289Z,4.70
2023-01-27T22:56:36.854Z,6.05
2023-01-27T22:59:04.890Z,5.68
2023-01-27T23:01:31.809Z,5.60
2023-01-27T23:03:58.833Z,5.10
2023-01-27T23:06:25.744Z,5.03
2023-01-27T23:08:56.321Z,4.97
2023-01-27T23:11:23.252Z,5.18
2023-01-27T23:13:50.123Z,5.80
2023-01-27T23:16:17.085Z,4.07
2023-01-27T23:18:44.076Z,3.60
2023-01-27T23:21:11.634Z,5.55
2023-01-27T23:23:38.536Z,3.83
2023-01-27T23:26:08.113Z,4.47
2023-01-27T23:28:35.386Z,4.80
2023-01-27T23:31:02.307Z,4.70
2023-01-27T23:33:34.651Z,4.47
2023-01-27T23:36:01.746Z,3.30
2023-01-27T23:38:33.210Z,4.82
2023-01-27T23:41:02.362Z,4.88
2023-01-27T23:43:33.556Z,5.72
2023-01-27T23:46:00.919Z,4.50
2023-01-27T23:48:28.188Z,5.70
2023-01-27T23:50:55.248Z,4.22
2023-01-27T23:53:22.796Z,4.05
2023-01-27T23:55:57.189Z,4.00
2023-01-27T23:58:24.195Z,3.90
